sensor_id;sensor_type;location;lat;lon;timestamp;P1;durP1;ratioP1;P2;durP2;ratioP2
80573;SDS011;69929;52.390;13.078;2023-05-19T00:00:56;6.63;;;2.30;;
80573;SDS011;69929;52.390;13.078;2023-05-19T00:03:25;10.88;;;2.78;;
80573;SDS011;69929;52.390;13.078;2023-05-19T00:05:52;7.10;;;2.35;;
80573;SDS011;69929;52.390;13.078;2023-05-19T00:08:19;9.15;;;2.60;;
80573;SDS011;69929;52.390;13.078;2023-05-19T00:10:49;5.50;;;2.00;;
80573;SDS011;69929;52.390;13.078;2023-05-19T00:13:16;7.25;;;2.13;;
80573;SDS011;69929;52.390;13.078;2023-05-19T00:15:44;12.73;;;2.15;;
80573;SDS011;69929;52.390;13.078;2023-05-19T00:18:11;10.38;;;2.47;;
80573;SDS011;69929;52.390;13.078;2023-05-19T00:20:39;8.32;;;2.67;;
80573;SDS011;69929;52.390;13.078;2023-05-19T00:23:06;12.38;;;3.45;;
80573;SDS011;69929;52.390;13.078;2023-05-19T00:25:33;11.35;;;3.10;;
80573;SDS011;69929;52.390;13.078;2023-05-19T00:27:59;8.32;;;3.40;;
80573;SDS011;69929;52.390;13.078;2023-05-19T00:30:30;8.43;;;3.05;;
80573;SDS011;69929;52.390;13.078;2023-05-19T00:32:57;9.90;;;2.55;;
80573;SDS011;69929;52.390;13.078;2023-05-19T00:35:24;9.32;;;2.70;;
80573;SDS011;69929;52.390;13.078;2023-05-19T00:37:50;5.93;;;2.17;;
80573;SDS011;69929;52.390;13.078;2023-05-19T00:40:17;7.50;;;2.40;;
80573;SDS011;69929;52.390;13.078;2023-05-19T00:42:44;7.03;;;2.42;;
80573;SDS011;69929;52.390;13.078;2023-05-19T00:45:10;10.35;;;3.50;;
80573;SDS011;69929;52.390;13.078;2023-05-19T00:47:37;14.38;;;2.50;;
80573;SDS011;69929;52.390;13.078;2023-05-19T00:50:04;12.43;;;2.08;;
80573;SDS011;69929;52.390;13.078;2023-05-19T00:52:31;10.48;;;2.92;;
80573;SDS011;69929;52.390;13.078;2023-05-19T00:54:58;9.75;;;2.08;;
80573;SDS011;69929;52.390;13.078;2023-05-19T00:57:25;14.20;;;3.60;;
80573;SDS011;69929;52.390;13.078;2023-05-19T00:59:52;10.02;;;2.25;;
80573;SDS011;69929;52.390;13.078;2023-05-19T01:02:19;8.98;;;2.28;;
80573;SDS011;69929;52.390;13.078;2023-05-19T01:04:46;14.30;;;2.70;;
80573;SDS011;69929;52.390;13.078;2023-05-19T01:07:14;7.70;;;2.85;;
80573;SDS011;69929;52.390;13.078;2023-05-19T01:09:41;8.43;;;2.25;;
80573;SDS011;69929;52.390;13.078;2023-05-19T01:12:08;5.05;;;2.63;;
80573;SDS011;69929;52.390;13.078;2023-05-19T01:14:34;7.93;;;2.58;;
80573;SDS011;69929;52.390;13.078;2023-05-19T01:19:52;7.53;;;2.50;;
80573;SDS011;69929;52.390;13.078;2023-05-19T01:25:33;12.32;;;3.83;;
80573;SDS011;69929;52.390;13.078;2023-05-19T01:30:55;7.32;;;2.60;;
80573;SDS011;69929;52.390;13.078;2023-05-19T01:33:24;6.32;;;2.13;;
80573;SDS011;69929;52.390;13.078;2023-05-19T01:35:53;5.80;;;2.10;;
80573;SDS011;69929;52.390;13.078;2023-05-19T01:38:21;7.68;;;2.75;;
80573;SDS011;69929;52.390;13.078;2023-05-19T01:40:49;7.20;;;2.67;;
80573;SDS011;69929;52.390;13.078;2023-05-19T01:43:18;5.22;;;2.47;;
80573;SDS011;69929;52.390;13.078;2023-05-19T01:45:46;11.05;;;3.45;;
80573;SDS011;69929;52.390;13.078;2023-05-19T01:48:14;7.90;;;2.83;;
80573;SDS011;69929;52.390;13.078;2023-05-19T01:50:41;7.25;;;2.63;;
80573;SDS011;69929;52.390;13.078;2023-05-19T01:53:08;9.55;;;2.80;;
80573;SDS011;69929;52.390;13.078;2023-05-19T01:55:43;13.63;;;2.97;;
80573;SDS011;69929;52.390;13.078;2023-05-19T02:00:46;13.93;;;2.80;;
80573;SDS011;69929;52.390;13.078;2023-05-19T02:08:57;5.10;;;1.92;;
80573;SDS011;69929;52.390;13.078;2023-05-19T02:11:41;6.03;;;2.38;;
80573;SDS011;69929;52.390;13.078;2023-05-19T02:14:18;7.78;;;2.63;;
80573;SDS011;69929;52.390;13.078;2023-05-19T02:16:47;6.70;;;2.42;;
80573;SDS011;69929;52.390;13.078;2023-05-19T02:19:24;6.00;;;2.90;;
80573;SDS011;69929;52.390;13.078;2023-05-19T02:21:53;8.98;;;2.53;;
80573;SDS011;69929;52.390;13.078;2023-05-19T02:24:20;15.38;;;3.05;;
80573;SDS011;69929;52.390;13.078;2023-05-19T02:26:51;6.93;;;3.33;;
80573;SDS011;69929;52.390;13.078;2023-05-19T02:29:19;9.50;;;3.40;;
80573;SDS011;69929;52.390;13.078;2023-05-19T02:31:46;5.75;;;3.90;;
80573;SDS011;69929;52.390;13.078;2023-05-19T02:34:13;9.48;;;2.83;;
80573;SDS011;69929;52.390;13.078;2023-05-19T02:36:40;8.57;;;3.42;;
80573;SDS011;69929;52.390;13.078;2023-05-19T02:39:11;8.32;;;3.13;;
80573;SDS011;69929;52.390;13.078;2023-05-19T02:41:38;9.15;;;3.00;;
80573;SDS011;69929;52.390;13.078;2023-05-19T02:44:04;11.15;;;2.60;;
80573;SDS011;69929;52.390;13.078;2023-05-19T02:46:31;6.75;;;2.45;;
80573;SDS011;69929;52.390;13.078;2023-05-19T02:48:58;9.55;;;2.70;;
80573;SDS011;69929;52.390;13.078;2023-05-19T02:51:24;8.95;;;2.80;;
80573;SDS011;69929;52.390;13.078;2023-05-19T02:53:51;9.40;;;2.72;;
80573;SDS011;69929;52.390;13.078;2023-05-19T02:56:17;12.77;;;3.88;;
80573;SDS011;69929;52.390;13.078;2023-05-19T02:58:44;8.40;;;2.30;;
80573;SDS011;69929;52.390;13.078;2023-05-19T03:01:10;8.02;;;2.53;;
80573;SDS011;69929;52.390;13.078;2023-05-19T03:03:37;7.43;;;2.00;;
80573;SDS011;69929;52.390;13.078;2023-05-19T03:06:04;9.40;;;2.92;;
80573;SDS011;69929;52.390;13.078;2023-05-19T03:08:34;10.98;;;2.38;;
80573;SDS011;69929;52.390;13.078;2023-05-19T03:11:01;7.45;;;2.25;;
80573;SDS011;69929;52.390;13.078;2023-05-19T03:13:28;7.22;;;2.50;;
80573;SDS011;69929;52.390;13.078;2023-05-19T03:15:55;10.10;;;3.15;;
80573;SDS011;69929;52.390;13.078;2023-05-19T03:18:24;11.77;;;3.33;;
80573;SDS011;69929;52.390;13.078;2023-05-19T03:20:51;6.80;;;2.30;;
80573;SDS011;69929;52.390;13.078;2023-05-19T03:23:21;12.00;;;2.75;;
80573;SDS011;69929;52.390;13.078;2023-05-19T03:25:48;6.85;;;2.33;;
80573;SDS011;69929;52.390;13.078;2023-05-19T03:28:14;10.32;;;2.33;;
80573;SDS011;69929;52.390;13.078;2023-05-19T03:30:42;3.95;;;2.55;;
80573;SDS011;69929;52.390;13.078;2023-05-19T03:33:08;8.00;;;2.47;;
80573;SDS011;69929;52.390;13.078;2023-05-19T03:35:35;6.97;;;2.65;;
80573;SDS011;69929;52.390;13.078;2023-05-19T03:38:02;5.65;;;2.35;;
80573;SDS011;69929;52.390;13.078;2023-05-19T03:40:28;10.23;;;2.25;;
80573;SDS011;69929;52.390;13.078;2023-05-19T03:42:55;6.32;;;2.40;;
80573;SDS011;69929;52.390;13.078;2023-05-19T03:45:22;7.95;;;2.85;;
80573;SDS011;69929;52.390;13.078;2023-05-19T03:47:48;6.57;;;2.50;;
80573;SDS011;69929;52.390;13.078;2023-05-19T03:50:15;8.52;;;2.58;;
80573;SDS011;69929;52.390;13.078;2023-05-19T03:52:41;4.65;;;2.30;;
80573;SDS011;69929;52.390;13.078;2023-05-19T03:55:11;4.40;;;2.00;;
80573;SDS011;69929;52.390;13.078;2023-05-19T03:57:39;5.60;;;3.00;;
80573;SDS011;69929;52.390;13.078;2023-05-19T04:00:06;4.32;;;2.08;;
80573;SDS011;69929;52.390;13.078;2023-05-19T04:02:36;8.20;;;2.38;;
80573;SDS011;69929;52.390;13.078;2023-05-19T04:05:02;12.32;;;2.10;;
80573;SDS011;69929;52.390;13.078;2023-05-19T04:07:32;10.55;;;2.33;;
80573;SDS011;69929;52.390;13.078;2023-05-19T04:09:59;12.30;;;2.47;;
80573;SDS011;69929;52.390;13.078;2023-05-19T04:12:25;7.70;;;2.50;;
80573;SDS011;69929;52.390;13.078;2023-05-19T04:14:52;6.45;;;2.30;;
80573;SDS011;69929;52.390;13.078;2023-05-19T04:17:18;11.75;;;3.00;;
80573;SDS011;69929;52.390;13.078;2023-05-19T04:19:45;5.93;;;2.10;;
80573;SDS011;69929;52.390;13.078;2023-05-19T04:22:11;9.88;;;2.28;;
80573;SDS011;69929;52.390;13.078;2023-05-19T04:24:38;10.48;;;2.47;;
80573;SDS011;69929;52.390;13.078;2023-05-19T04:27:04;5.95;;;2.40;;
80573;SDS011;69929;52.390;13.078;2023-05-19T04:29:37;10.95;;;2.40;;
80573;SDS011;69929;52.390;13.078;2023-05-19T04:32:05;5.88;;;2.20;;
80573;SDS011;69929;52.390;13.078;2023-05-19T04:34:35;8.05;;;2.67;;
80573;SDS011;69929;52.390;13.078;2023-05-19T04:37:06;9.20;;;2.88;;
80573;SDS011;69929;52.390;13.078;2023-05-19T04:39:32;6.85;;;2.33;;
80573;SDS011;69929;52.390;13.078;2023-05-19T04:41:59;6.22;;;2.75;;
80573;SDS011;69929;52.390;13.078;2023-05-19T04:44:25;6.55;;;1.85;;
80573;SDS011;69929;52.390;13.078;2023-05-19T04:46:52;5.18;;;2.03;;
80573;SDS011;69929;52.390;13.078;2023-05-19T04:49:19;7.07;;;3.13;;
80573;SDS011;69929;52.390;13.078;2023-05-19T04:51:46;4.85;;;2.33;;
80573;SDS011;69929;52.390;13.078;2023-05-19T04:54:15;5.72;;;2.40;;
80573;SDS011;69929;52.390;13.078;2023-05-19T04:56:41;10.60;;;2.53;;
80573;SDS011;69929;52.390;13.078;2023-05-19T04:59:09;8.52;;;2.10;;
80573;SDS011;69929;52.390;13.078;2023-05-19T05:01:35;3.92;;;2.65;;
80573;SDS011;69929;52.390;13.078;2023-05-19T05:04:05;14.90;;;2.78;;
80573;SDS011;69929;52.390;13.078;2023-05-19T05:06:32;6.45;;;2.38;;
80573;SDS011;69929;52.390;13.078;2023-05-19T05:08:59;5.53;;;2.47;;
80573;SDS011;69929;52.390;13.078;2023-05-19T05:11:25;5.20;;;2.40;;
80573;SDS011;69929;52.390;13.078;2023-05-19T05:13:52;6.32;;;2.60;;
80573;SDS011;69929;52.390;13.078;2023-05-19T05:16:23;8.00;;;2.43;;
80573;SDS011;69929;52.390;13.078;2023-05-19T05:18:49;7.78;;;2.78;;
80573;SDS011;69929;52.390;13.078;2023-05-19T05:21:16;12.18;;;2.80;;
80573;SDS011;69929;52.390;13.078;2023-05-19T05:23:43;8.13;;;2.80;;
80573;SDS011;69929;52.390;13.078;2023-05-19T05:26:14;6.07;;;2.65;;
80573;SDS011;69929;52.390;13.078;2023-05-19T05:28:44;8.38;;;2.70;;
80573;SDS011;69929;52.390;13.078;2023-05-19T05:31:11;9.13;;;3.58;;
80573;SDS011;69929;52.390;13.078;2023-05-19T05:33:37;11.02;;;3.47;;
80573;SDS011;69929;52.390;13.078;2023-05-19T05:36:04;10.63;;;3.65;;
80573;SDS011;69929;52.390;13.078;2023-05-19T05:38:31;8.18;;;3.10;;
80573;SDS011;69929;52.390;13.078;2023-05-19T05:40:57;10.05;;;3.63;;
80573;SDS011;69929;52.390;13.078;2023-05-19T05:43:24;8.45;;;3.78;;
80573;SDS011;69929;52.390;13.078;2023-05-19T05:45:50;4.75;;;2.38;;
80573;SDS011;69929;52.390;13.078;2023-05-19T05:48:17;14.63;;;3.35;;
80573;SDS011;69929;52.390;13.078;2023-05-19T05:50:44;11.65;;;3.10;;
80573;SDS011;69929;52.390;13.078;2023-05-19T05:53:12;8.98;;;3.15;;
80573;SDS011;69929;52.390;13.078;2023-05-19T05:55:43;10.13;;;2.85;;
80573;SDS011;69929;52.390;13.078;2023-05-19T05:58:13;12.13;;;3.00;;
80573;SDS011;69929;52.390;13.078;2023-05-19T06:00:42;10.15;;;3.50;;
80573;SDS011;69929;52.390;13.078;2023-05-19T06:03:09;7.10;;;2.70;;
80573;SDS011;69929;52.390;13.078;2023-05-19T06:05:36;8.98;;;3.20;;
80573;SDS011;69929;52.390;13.078;2023-05-19T06:08:04;7.78;;;2.95;;
80573;SDS011;69929;52.390;13.078;2023-05-19T06:10:31;6.50;;;3.25;;
80573;SDS011;69929;52.390;13.078;2023-05-19T06:12:58;8.65;;;2.80;;
80573;SDS011;69929;52.390;13.078;2023-05-19T06:15:25;10.07;;;3.10;;
80573;SDS011;69929;52.390;13.078;2023-05-19T06:17:51;6.32;;;2.78;;
80573;SDS011;69929;52.390;13.078;2023-05-19T06:20:19;8.73;;;3.45;;
80573;SDS011;69929;52.390;13.078;2023-05-19T06:22:46;6.88;;;2.65;;
80573;SDS011;69929;52.390;13.078;2023-05-19T06:25:13;7.97;;;3.15;;
80573;SDS011;69929;52.390;13.078;2023-05-19T06:27:39;9.70;;;3.03;;
80573;SDS011;69929;52.390;13.078;2023-05-19T06:30:06;5.35;;;3.05;;
80573;SDS011;69929;52.390;13.078;2023-05-19T06:32:33;7.80;;;3.20;;
80573;SDS011;69929;52.390;13.078;2023-05-19T06:35:00;6.38;;;2.60;;
80573;SDS011;69929;52.390;13.078;2023-05-19T06:37:27;6.10;;;3.35;;
80573;SDS011;69929;52.390;13.078;2023-05-19T06:39:54;8.32;;;3.30;;
80573;SDS011;69929;52.390;13.078;2023-05-19T06:42:20;8.13;;;3.22;;
80573;SDS011;69929;52.390;13.078;2023-05-19T06:44:48;9.52;;;2.88;;
80573;SDS011;69929;52.390;13.078;2023-05-19T06:47:15;9.70;;;2.75;;
80573;SDS011;69929;52.390;13.078;2023-05-19T06:49:45;8.57;;;2.67;;
80573;SDS011;69929;52.390;13.078;2023-05-19T06:52:16;8.02;;;2.97;;
80573;SDS011;69929;52.390;13.078;2023-05-19T06:54:43;6.63;;;2.63;;
80573;SDS011;69929;52.390;13.078;2023-05-19T06:57:10;7.05;;;3.08;;
80573;SDS011;69929;52.390;13.078;2023-05-19T06:59:36;6.45;;;2.58;;
80573;SDS011;69929;52.390;13.078;2023-05-19T07:02:07;5.28;;;2.30;;
80573;SDS011;69929;52.390;13.078;2023-05-19T07:04:34;7.50;;;2.97;;
80573;SDS011;69929;52.390;13.078;2023-05-19T07:07:01;8.43;;;2.78;;
80573;SDS011;69929;52.390;13.078;2023-05-19T07:09:28;10.25;;;2.97;;
80573;SDS011;69929;52.390;13.078;2023-05-19T07:11:55;8.27;;;2.13;;
80573;SDS011;69929;52.390;13.078;2023-05-19T07:14:21;6.63;;;2.40;;
80573;SDS011;69929;52.390;13.078;2023-05-19T07:16:48;8.50;;;2.40;;
80573;SDS011;69929;52.390;13.078;2023-05-19T07:19:15;10.20;;;2.65;;
80573;SDS011;69929;52.390;13.078;2023-05-19T07:21:42;5.82;;;2.15;;
80573;SDS011;69929;52.390;13.078;2023-05-19T07:24:08;5.30;;;1.85;;
80573;SDS011;69929;52.390;13.078;2023-05-19T07:26:35;8.50;;;2.45;;
80573;SDS011;69929;52.390;13.078;2023-05-19T07:29:01;5.75;;;2.72;;
80573;SDS011;69929;52.390;13.078;2023-05-19T07:31:28;5.43;;;2.67;;
80573;SDS011;69929;52.390;13.078;2023-05-19T07:33:55;6.70;;;2.47;;
80573;SDS011;69929;52.390;13.078;2023-05-19T07:36:22;7.15;;;2.53;;
80573;SDS011;69929;52.390;13.078;2023-05-19T07:38:48;6.95;;;2.30;;
80573;SDS011;69929;52.390;13.078;2023-05-19T07:41:15;9.77;;;2.80;;
80573;SDS011;69929;52.390;13.078;2023-05-19T07:43:42;6.30;;;2.83;;
80573;SDS011;69929;52.390;13.078;2023-05-19T07:46:08;3.78;;;1.80;;
80573;SDS011;69929;52.390;13.078;2023-05-19T07:48:35;3.60;;;1.75;;
80573;SDS011;69929;52.390;13.078;2023-05-19T07:51:02;7.93;;;3.17;;
80573;SDS011;69929;52.390;13.078;2023-05-19T07:53:28;8.35;;;2.30;;
80573;SDS011;69929;52.390;13.078;2023-05-19T07:55:55;10.55;;;2.67;;
80573;SDS011;69929;52.390;13.078;2023-05-19T07:58:24;8.25;;;1.90;;
80573;SDS011;69929;52.390;13.078;2023-05-19T08:00:50;7.45;;;3.22;;
80573;SDS011;69929;52.390;13.078;2023-05-19T08:03:18;10.30;;;2.00;;
80573;SDS011;69929;52.390;13.078;2023-05-19T08:05:46;9.10;;;2.85;;
80573;SDS011;69929;52.390;13.078;2023-05-19T08:08:12;8.63;;;2.42;;
80573;SDS011;69929;52.390;13.078;2023-05-19T08:10:42;6.22;;;2.17;;
80573;SDS011;69929;52.390;13.078;2023-05-19T08:13:08;4.72;;;1.83;;
80573;SDS011;69929;52.390;13.078;2023-05-19T08:15:35;6.53;;;2.10;;
80573;SDS011;69929;52.390;13.078;2023-05-19T08:18:02;10.40;;;2.63;;
80573;SDS011;69929;52.390;13.078;2023-05-19T08:20:30;10.68;;;2.85;;
80573;SDS011;69929;52.390;13.078;2023-05-19T08:22:57;10.07;;;2.33;;
80573;SDS011;69929;52.390;13.078;2023-05-19T08:25:24;5.35;;;2.35;;
80573;SDS011;69929;52.390;13.078;2023-05-19T08:27:50;3.97;;;2.30;;
80573;SDS011;69929;52.390;13.078;2023-05-19T08:30:17;3.72;;;1.88;;
80573;SDS011;69929;52.390;13.078;2023-05-19T08:32:43;6.10;;;2.42;;
80573;SDS011;69929;52.390;13.078;2023-05-19T08:35:10;6.97;;;2.30;;
80573;SDS011;69929;52.390;13.078;2023-05-19T08:37:37;4.57;;;2.00;;
80573;SDS011;69929;52.390;13.078;2023-05-19T08:40:03;6.15;;;2.13;;
80573;SDS011;69929;52.390;13.078;2023-05-19T08:42:31;4.80;;;2.22;;
80573;SDS011;69929;52.390;13.078;2023-05-19T08:44:59;6.72;;;2.38;;
80573;SDS011;69929;52.390;13.078;2023-05-19T08:47:27;7.85;;;2.95;;
80573;SDS011;69929;52.390;13.078;2023-05-19T08:49:55;7.53;;;2.47;;
80573;SDS011;69929;52.390;13.078;2023-05-19T08:58:06;14.68;;;2.30;;
80573;SDS011;69929;52.390;13.078;2023-05-19T09:00:34;3.72;;;1.75;;
80573;SDS011;69929;52.390;13.078;2023-05-19T09:03:01;4.75;;;2.40;;
80573;SDS011;69929;52.390;13.078;2023-05-19T09:05:43;8.40;;;1.60;;
80573;SDS011;69929;52.390;13.078;2023-05-19T09:08:11;3.50;;;1.80;;
80573;SDS011;69929;52.390;13.078;2023-05-19T09:10:38;4.25;;;1.73;;
80573;SDS011;69929;52.390;13.078;2023-05-19T09:13:05;7.20;;;2.53;;
80573;SDS011;69929;52.390;13.078;2023-05-19T09:15:32;6.68;;;1.95;;
80573;SDS011;69929;52.390;13.078;2023-05-19T09:18:08;11.68;;;2.35;;
80573;SDS011;69929;52.390;13.078;2023-05-19T09:20:40;5.65;;;2.17;;
80573;SDS011;69929;52.390;13.078;2023-05-19T09:23:12;4.25;;;2.22;;
80573;SDS011;69929;52.390;13.078;2023-05-19T09:25:49;7.97;;;2.13;;
80573;SDS011;69929;52.390;13.078;2023-05-19T09:30:53;5.95;;;1.63;;
80573;SDS011;69929;52.390;13.078;2023-05-19T09:33:24;2.65;;;1.35;;
80573;SDS011;69929;52.390;13.078;2023-05-19T09:35:50;3.78;;;1.92;;
80573;SDS011;69929;52.390;13.078;2023-05-19T09:38:17;5.15;;;1.60;;
80573;SDS011;69929;52.390;13.078;2023-05-19T09:40:44;3.13;;;1.50;;
80573;SDS011;69929;52.390;13.078;2023-05-19T09:43:14;3.50;;;1.35;;
80573;SDS011;69929;52.390;13.078;2023-05-19T09:45:41;3.88;;;1.23;;
80573;SDS011;69929;52.390;13.078;2023-05-19T09:48:08;3.90;;;1.52;;
80573;SDS011;69929;52.390;13.078;2023-05-19T09:50:35;3.85;;;1.40;;
80573;SDS011;69929;52.390;13.078;2023-05-19T09:53:02;3.20;;;1.02;;
80573;SDS011;69929;52.390;13.078;2023-05-19T09:55:29;1.98;;;0.73;;
80573;SDS011;69929;52.390;13.078;2023-05-19T09:57:58;6.43;;;1.35;;
80573;SDS011;69929;52.390;13.078;2023-05-19T10:00:29;4.68;;;1.20;;
80573;SDS011;69929;52.390;13.078;2023-05-19T10:02:58;6.18;;;1.67;;
80573;SDS011;69929;52.390;13.078;2023-05-19T10:05:26;2.22;;;0.80;;
80573;SDS011;69929;52.390;13.078;2023-05-19T10:07:54;2.88;;;1.13;;
80573;SDS011;69929;52.390;13.078;2023-05-19T10:10:21;8.07;;;0.98;;
80573;SDS011;69929;52.390;13.078;2023-05-19T10:12:48;3.15;;;1.10;;
80573;SDS011;69929;52.390;13.078;2023-05-19T10:15:16;2.97;;;1.15;;
80573;SDS011;69929;52.390;13.078;2023-05-19T10:17:47;6.38;;;1.20;;
80573;SDS011;69929;52.390;13.078;2023-05-19T10:20:15;4.10;;;1.27;;
80573;SDS011;69929;52.390;13.078;2023-05-19T10:22:43;1.67;;;0.80;;
80573;SDS011;69929;52.390;13.078;2023-05-19T10:25:11;3.55;;;1.23;;
80573;SDS011;69929;52.390;13.078;2023-05-19T10:27:56;3.63;;;1.05;;
80573;SDS011;69929;52.390;13.078;2023-05-19T10:30:30;2.25;;;1.33;;
80573;SDS011;69929;52.390;13.078;2023-05-19T10:33:01;7.63;;;1.98;;
80573;SDS011;69929;52.390;13.078;2023-05-19T10:38:48;5.40;;;1.20;;
80573;SDS011;69929;52.390;13.078;2023-05-19T10:44:15;6.40;;;1.27;;
80573;SDS011;69929;52.390;13.078;2023-05-19T10:47:06;3.00;;;1.17;;
80573;SDS011;69929;52.390;13.078;2023-05-19T10:49:34;3.58;;;1.35;;
80573;SDS011;69929;52.390;13.078;2023-05-19T10:52:01;4.18;;;1.38;;
80573;SDS011;69929;52.390;13.078;2023-05-19T10:54:38;2.70;;;1.13;;
80573;SDS011;69929;52.390;13.078;2023-05-19T10:57:06;8.23;;;1.73;;
80573;SDS011;69929;52.390;13.078;2023-05-19T10:59:34;4.03;;;1.15;;
80573;SDS011;69929;52.390;13.078;2023-05-19T11:02:03;5.95;;;1.30;;
80573;SDS011;69929;52.390;13.078;2023-05-19T11:04:47;4.03;;;1.42;;
80573;SDS011;69929;52.390;13.078;2023-05-19T11:07:18;1.85;;;0.93;;
80573;SDS011;69929;52.390;13.078;2023-05-19T11:09:49;9.85;;;1.08;;
80573;SDS011;69929;52.390;13.078;2023-05-19T11:12:20;2.15;;;0.93;;
80573;SDS011;69929;52.390;13.078;2023-05-19T11:14:53;3.72;;;1.02;;
80573;SDS011;69929;52.390;13.078;2023-05-19T11:17:20;3.55;;;1.73;;
80573;SDS011;69929;52.390;13.078;2023-05-19T11:19:51;3.35;;;1.40;;
80573;SDS011;69929;52.390;13.078;2023-05-19T11:22:25;8.27;;;1.30;;
80573;SDS011;69929;52.390;13.078;2023-05-19T11:24:53;3.97;;;1.30;;
80573;SDS011;69929;52.390;13.078;2023-05-19T11:29:50;6.13;;;1.10;;
80573;SDS011;69929;52.390;13.078;2023-05-19T11:32:21;3.05;;;1.10;;
80573;SDS011;69929;52.390;13.078;2023-05-19T11:34:52;2.88;;;1.20;;
80573;SDS011;69929;52.390;13.078;2023-05-19T11:37:21;1.30;;;0.80;;
80573;SDS011;69929;52.390;13.078;2023-05-19T11:39:47;3.17;;;0.82;;
80573;SDS011;69929;52.390;13.078;2023-05-19T11:42:14;5.25;;;1.83;;
80573;SDS011;69929;52.390;13.078;2023-05-19T11:44:44;2.30;;;1.00;;
80573;SDS011;69929;52.390;13.078;2023-05-19T11:47:12;4.32;;;1.05;;
80573;SDS011;69929;52.390;13.078;2023-05-19T11:49:43;24.40;;;2.20;;
80573;SDS011;69929;52.390;13.078;2023-05-19T11:52:10;2.72;;;0.80;;
80573;SDS011;69929;52.390;13.078;2023-05-19T11:54:37;3.05;;;1.35;;
80573;SDS011;69929;52.390;13.078;2023-05-19T11:57:06;3.80;;;1.23;;
80573;SDS011;69929;52.390;13.078;2023-05-19T11:59:34;4.20;;;1.27;;
80573;SDS011;69929;52.390;13.078;2023-05-19T12:02:24;4.85;;;1.08;;
80573;SDS011;69929;52.390;13.078;2023-05-19T12:04:51;2.47;;;0.90;;
80573;SDS011;69929;52.390;13.078;2023-05-19T12:07:19;1.95;;;0.70;;
80573;SDS011;69929;52.390;13.078;2023-05-19T12:09:49;3.53;;;1.48;;
80573;SDS011;69929;52.390;13.078;2023-05-19T12:12:17;5.32;;;1.30;;
80573;SDS011;69929;52.390;13.078;2023-05-19T12:14:46;7.50;;;1.50;;
80573;SDS011;69929;52.390;13.078;2023-05-19T12:17:14;8.05;;;1.33;;
80573;SDS011;69929;52.390;13.078;2023-05-19T12:19:42;3.33;;;1.25;;
80573;SDS011;69929;52.390;13.078;2023-05-19T12:22:10;2.60;;;1.23;;
80573;SDS011;69929;52.390;13.078;2023-05-19T12:24:37;3.83;;;1.13;;
80573;SDS011;69929;52.390;13.078;2023-05-19T12:27:12;3.55;;;1.55;;
80573;SDS011;69929;52.390;13.078;2023-05-19T12:29:47;3.92;;;0.95;;
80573;SDS011;69929;52.390;13.078;2023-05-19T12:32:22;4.50;;;1.48;;
80573;SDS011;69929;52.390;13.078;2023-05-19T12:34:56;5.53;;;1.20;;
80573;SDS011;69929;52.390;13.078;2023-05-19T12:37:26;3.80;;;1.40;;
80573;SDS011;69929;52.390;13.078;2023-05-19T12:39:55;8.25;;;1.70;;
80573;SDS011;69929;52.390;13.078;2023-05-19T12:42:22;4.90;;;1.38;;
80573;SDS011;69929;52.390;13.078;2023-05-19T12:44:50;4.00;;;1.60;;
80573;SDS011;69929;52.390;13.078;2023-05-19T12:47:18;3.95;;;1.45;;
80573;SDS011;69929;52.390;13.078;2023-05-19T12:52:22;2.35;;;1.30;;
80573;SDS011;69929;52.390;13.078;2023-05-19T12:54:49;5.00;;;1.55;;
80573;SDS011;69929;52.390;13.078;2023-05-19T12:57:22;3.22;;;1.40;;
80573;SDS011;69929;52.390;13.078;2023-05-19T12:59:51;6.47;;;1.00;;
80573;SDS011;69929;52.390;13.078;2023-05-19T13:02:18;3.50;;;1.45;;
80573;SDS011;69929;52.390;13.078;2023-05-19T13:04:46;4.28;;;1.20;;
80573;SDS011;69929;52.390;13.078;2023-05-19T13:07:13;4.30;;;1.52;;
80573;SDS011;69929;52.390;13.078;2023-05-19T13:09:40;2.05;;;1.02;;
80573;SDS011;69929;52.390;13.078;2023-05-19T13:12:07;4.43;;;1.10;;
80573;SDS011;69929;52.390;13.078;2023-05-19T13:14:34;2.75;;;1.25;;
80573;SDS011;69929;52.390;13.078;2023-05-19T13:17:00;3.13;;;1.30;;
80573;SDS011;69929;52.390;13.078;2023-05-19T13:19:27;3.45;;;1.02;;
80573;SDS011;69929;52.390;13.078;2023-05-19T13:21:54;5.38;;;1.50;;
80573;SDS011;69929;52.390;13.078;2023-05-19T13:24:20;3.85;;;1.63;;
80573;SDS011;69929;52.390;13.078;2023-05-19T13:26:47;6.07;;;2.03;;
80573;SDS011;69929;52.390;13.078;2023-05-19T13:29:14;3.67;;;1.33;;
80573;SDS011;69929;52.390;13.078;2023-05-19T13:31:40;3.60;;;0.90;;
80573;SDS011;69929;52.390;13.078;2023-05-19T13:34:07;2.92;;;1.40;;
80573;SDS011;69929;52.390;13.078;2023-05-19T13:36:34;4.00;;;1.30;;
80573;SDS011;69929;52.390;13.078;2023-05-19T13:39:01;2.00;;;1.15;;
80573;SDS011;69929;52.390;13.078;2023-05-19T13:41:28;2.28;;;1.00;;
80573;SDS011;69929;52.390;13.078;2023-05-19T13:43:56;3.13;;;1.15;;
80573;SDS011;69929;52.390;13.078;2023-05-19T13:46:24;5.55;;;1.35;;
80573;SDS011;69929;52.390;13.078;2023-05-19T13:49:08;5.28;;;1.40;;
80573;SDS011;69929;52.390;13.078;2023-05-19T13:51:35;15.95;;;1.60;;
80573;SDS011;69929;52.390;13.078;2023-05-19T13:54:02;3.88;;;1.50;;
80573;SDS011;69929;52.390;13.078;2023-05-19T13:56:30;2.65;;;1.27;;
80573;SDS011;69929;52.390;13.078;2023-05-19T13:58:57;5.15;;;1.35;;
80573;SDS011;69929;52.390;13.078;2023-05-19T14:01:23;4.18;;;1.30;;
80573;SDS011;69929;52.390;13.078;2023-05-19T14:03:50;3.47;;;1.40;;
80573;SDS011;69929;52.390;13.078;2023-05-19T14:06:17;8.07;;;1.95;;
80573;SDS011;69929;52.390;13.078;2023-05-19T14:08:45;4.03;;;1.90;;
80573;SDS011;69929;52.390;13.078;2023-05-19T14:11:18;3.88;;;1.17;;
80573;SDS011;69929;52.390;13.078;2023-05-19T14:13:47;3.95;;;1.80;;
80573;SDS011;69929;52.390;13.078;2023-05-19T14:16:18;3.83;;;1.38;;
80573;SDS011;69929;52.390;13.078;2023-05-19T14:18:47;5.93;;;1.55;;
80573;SDS011;69929;52.390;13.078;2023-05-19T14:21:14;2.53;;;1.08;;
80573;SDS011;69929;52.390;13.078;2023-05-19T14:23:40;14.07;;;1.50;;
80573;SDS011;69929;52.390;13.078;2023-05-19T14:26:07;5.85;;;1.60;;
80573;SDS011;69929;52.390;13.078;2023-05-19T14:28:33;9.55;;;1.75;;
80573;SDS011;69929;52.390;13.078;2023-05-19T14:31:00;3.03;;;1.33;;
80573;SDS011;69929;52.390;13.078;2023-05-19T14:33:27;4.10;;;1.45;;
80573;SDS011;69929;52.390;13.078;2023-05-19T14:35:56;7.05;;;1.67;;
80573;SDS011;69929;52.390;13.078;2023-05-19T14:38:25;4.25;;;1.70;;
80573;SDS011;69929;52.390;13.078;2023-05-19T14:40:53;7.85;;;1.58;;
80573;SDS011;69929;52.390;13.078;2023-05-19T14:43:20;5.43;;;1.45;;
80573;SDS011;69929;52.390;13.078;2023-05-19T14:45:47;6.13;;;1.83;;
80573;SDS011;69929;52.390;13.078;2023-05-19T14:48:14;3.35;;;1.02;;
80573;SDS011;69929;52.390;13.078;2023-05-19T14:50:41;6.35;;;1.17;;
80573;SDS011;69929;52.390;13.078;2023-05-19T14:53:07;4.05;;;1.48;;
80573;SDS011;69929;52.390;13.078;2023-05-19T14:55:34;2.38;;;1.38;;
80573;SDS011;69929;52.390;13.078;2023-05-19T14:58:00;6.53;;;1.60;;
80573;SDS011;69929;52.390;13.078;2023-05-19T15:00:29;3.92;;;1.48;;
80573;SDS011;69929;52.390;13.078;2023-05-19T15:02:56;2.05;;;1.27;;
80573;SDS011;69929;52.390;13.078;2023-05-19T15:05:23;4.45;;;1.58;;
80573;SDS011;69929;52.390;13.078;2023-05-19T15:07:49;4.10;;;1.40;;
80573;SDS011;69929;52.390;13.078;2023-05-19T15:10:16;3.38;;;1.50;;
80573;SDS011;69929;52.390;13.078;2023-05-19T15:12:45;2.70;;;1.40;;
80573;SDS011;69929;52.390;13.078;2023-05-19T15:15:12;4.20;;;2.22;;